Time;durP1;ratioP1;P1;durP2;ratioP2;P2;SDS_P1;SDS_P2;PMS_P1;PMS_P2;Temp;Humidity;BMP_temperature;BMP_pressure;BME280_temperature;BME280_humidity;BME280_pressure;Samples;Min_cycle;Max_cycle;Signal;HPM_P1;HPM_P2
2021/11/15 00:02:14;;;;;;;32.23;18.60;;;;;;;5.49;95.58;96001.66;5075143;28;20197;-79
2021/11/15 00:04:40;;;;;;;32.83;20.10;;;;;;;5.49;96.16;96003.41;5056783;28;20241;-79
2021/11/15 00:07:05;;;;;;;32.13;20.87;;;;;;;5.42;96.27;96008.16;5074311;28;20200;-79
2021/11/15 00:09:31;;;;;;;31.23;18.37;;;;;;;5.49;96.41;95999.09;5074143;28;20651;-79
2021/11/15 00:11:56;;;;;;;33.77;20.07;;;;;;;5.48;96.77;95999.16;5074179;28;20719;-79
2021/11/15 00:14:22;;;;;;;34.20;21.30;;;;;;;5.38;97.25;95994.63;5075188;28;20651;-78
2021/11/15 00:16:47;;;;;;;31.10;19.80;;;;;;;5.44;97.37;95993.41;5085868;28;20179;-79
2021/11/15 00:19:13;;;;;;;29.60;20.43;;;;;;;5.32;97.05;95995.09;5077205;28;20597;-79
2021/11/15 00:21:39;;;;;;;35.27;22.10;;;;;;;5.31;97.47;96001.16;5077006;28;20288;-78
2021/11/15 00:24:05;;;;;;;37.77;22.50;;;;;;;5.23;97.88;95998.28;5093531;28;20253;-79
2021/11/15 00:26:30;;;;;;;31.90;19.80;;;;;;;5.24;97.87;95997.34;5082194;28;20176;-80
2021/11/15 00:28:56;;;;;;;40.37;21.53;;;;;;;5.22;97.99;95993.25;5081241;28;20234;-80
2021/11/15 00:31:22;;;;;;;38.07;21.67;;;;;;;5.17;98.33;95995.28;5067449;28;20193;-79
2021/11/15 00:33:48;;;;;;;33.60;19.63;;;;;;;5.28;97.47;96000.53;5091171;28;20263;-79
2021/11/15 00:36:13;;;;;;;33.40;20.80;;;;;;;5.22;97.50;95995.81;5093880;28;20180;-78
2021/11/15 00:38:39;;;;;;;31.93;19.33;;;;;;;5.25;97.34;95998.19;5093905;28;20177;-79
2021/11/15 00:41:04;;;;;;;38.67;21.63;;;;;;;5.24;97.32;95997.34;5093480;28;20338;-80
2021/11/15 00:43:29;;;;;;;33.93;20.30;;;;;;;5.23;97.41;96003.44;5094147;28;20204;-79
2021/11/15 00:45:55;;;;;;;34.77;20.30;;;;;;;5.21;97.62;96002.72;5083130;28;20187;-80
2021/11/15 00:48:21;;;;;;;34.73;19.87;;;;;;;5.19;97.30;96009.69;5075007;28;20180;-79
2021/11/15 00:50:46;;;;;;;36.50;20.73;;;;;;;5.05;97.62;96012.41;5073390;28;20212;-79
2021/11/15 00:53:11;;;;;;;30.93;19.87;;;;;;;5.13;97.22;96012.72;5073275;28;20177;-78
2021/11/15 00:55:37;;;;;;;35.97;21.33;;;;;;;5.08;97.02;96004.47;5073713;28;20181;-79
2021/11/15 00:58:02;;;;;;;36.40;20.03;;;;;;;5.07;97.51;96010.53;5072983;28;20553;-79
2021/11/15 01:00:30;;;;;;;33.00;19.13;;;;;;;5.07;97.28;96006.22;5056129;28;20197;-79
2021/11/15 01:02:56;;;;;;;31.47;19.27;;;;;;;5.10;97.36;96012.91;5073028;28;20175;-78
2021/11/15 01:05:23;;;;;;;30.77;18.53;;;;;;;5.02;97.26;96010.81;5055502;28;20200;-79
2021/11/15 01:07:48;;;;;;;32.83;19.57;;;;;;;4.95;97.94;96016.50;5072611;28;20235;-78
2021/11/15 01:10:15;;;;;;;35.17;20.93;;;;;;;4.90;98.12;96013.41;5072802;28;20197;-79
2021/11/15 01:12:40;;;;;;;36.70;21.67;;;;;;;4.99;97.88;96020.50;5072657;28;20165;-80
2021/11/15 01:15:09;;;;;;;35.63;20.40;;;;;;;4.94;97.81;96019.97;5055711;28;20234;-78
2021/11/15 01:17:35;;;;;;;34.87;19.83;;;;;;;4.93;98.29;96018.34;5064320;28;20189;-79
2021/11/15 01:20:01;;;;;;;36.83;19.83;;;;;;;4.96;97.54;96006.09;5072652;28;20165;-80
2021/11/15 01:22:26;;;;;;;30.47;17.70;;;;;;;4.96;97.67;96002.72;5072384;28;20234;-79
2021/11/15 01:24:51;;;;;;;33.60;19.10;;;;;;;4.94;97.99;96007.13;5071269;28;20204;-78
2021/11/15 01:27:17;;;;;;;32.63;19.13;;;;;;;4.86;97.89;95997.34;5072290;28;20173;-79
2021/11/15 01:29:44;;;;;;;34.73;19.57;;;;;;;4.86;98.09;96006.78;5072459;28;20207;-79
2021/11/15 01:32:10;;;;;;;30.50;18.50;;;;;;;4.86;98.03;96006.78;5057016;28;20224;-79
2021/11/15 01:34:36;;;;;;;33.17;18.63;;;;;;;4.84;98.38;96000.00;5070350;28;20537;-79
2021/11/15 01:37:01;;;;;;;32.57;18.53;;;;;;;4.78;98.67;95999.63;5072325;28;20284;-79
2021/11/15 01:39:27;;;;;;;34.93;18.87;;;;;;;4.85;98.27;95998.25;5071982;28;20218;-78
2021/11/15 01:41:52;;;;;;;32.80;18.73;;;;;;;4.87;98.14;95993.03;5055458;28;20193;-79
2021/11/15 01:44:18;;;;;;;35.93;18.10;;;;;;;4.88;98.25;95998.06;5071140;28;20737;-79
2021/11/15 01:46:43;;;;;;;31.83;18.77;;;;;;;4.90;97.97;95995.38;5064410;28;20232;-79
2021/11/15 01:49:08;;;;;;;38.03;19.37;;;;;;;4.86;97.73;95993.94;5088491;28;20204;-79
2021/11/15 01:51:33;;;;;;;33.60;18.50;;;;;;;4.81;98.24;95994.25;5072907;28;20247;-78
2021/11/15 01:53:59;;;;;;;33.17;18.47;;;;;;;4.83;97.60;95997.53;5087885;28;20177;-79
2021/11/15 01:56:24;;;;;;;34.07;19.57;;;;;;;4.86;97.64;95999.06;5088694;28;20684;-78
2021/11/15 01:58:50;;;;;;;31.50;18.63;;;;;;;4.82;97.37;95991.56;5088933;28;20526;-79
2021/11/15 02:01:15;;;;;;;38.10;18.47;;;;;;;4.81;97.84;95994.25;5071731;28;20283;-79
2021/11/15 02:03:41;;;;;;;33.27;17.80;;;;;;;4.82;97.57;95998.47;5071042;28;20798;-79
2021/11/15 02:06:06;;;;;;;31.23;18.20;;;;;;;4.82;97.39;95986.44;5088312;28;20217;-78
2021/11/15 02:08:32;;;;;;;33.47;18.83;;;;;;;4.82;97.45;95986.44;5071468;28;20199;-79
2021/11/15 02:10:58;;;;;;;33.53;19.23;;;;;;;4.75;97.33;95985.19;5071613;28;20200;-79
2021/11/15 02:13:24;;;;;;;34.10;18.97;;;;;;;4.76;97.51;95984.25;5071243;28;20173;-80
2021/11/15 02:15:51;;;;;;;34.43;18.10;;;;;;;4.78;97.42;95984.19;5082612;28;20176;-79
2021/11/15 02:18:17;;;;;;;33.50;17.77;;;;;;;4.86;96.66;95986.22;5073834;28;20181;-79
2021/11/15 02:20:46;;;;;;;32.13;16.90;;;;;;;4.80;96.79;95983.13;5054944;28;20761;-79
2021/11/15 02:23:12;;;;;;;31.60;16.80;;;;;;;4.81;96.75;95983.97;5071385;28;20173;-78
2021/11/15 02:25:38;;;;;;;31.93;17.07;;;;;;;4.86;96.79;95975.91;5070819;28;20212;-79
2021/11/15 02:28:03;;;;;;;32.97;17.83;;;;;;;4.83;96.39;95977.78;5071543;28;20169;-79
2021/11/15 02:30:29;;;;;;;31.73;18.23;;;;;;;4.77;96.91;95975.63;5071058;28;20189;-79
2021/11/15 02:32:55;;;;;;;30.33;18.83;;;;;;;4.77;96.76;95962.75;5054748;28;20684;-80
2021/11/15 02:35:22;;;;;;;33.97;18.27;;;;;;;4.81;96.94;95976.25;5069250;28;20177;-79
2021/11/15 02:37:48;;;;;;;34.00;17.90;;;;;;;4.68;96.76;95975.38;5071281;28;20180;-78
2021/11/15 02:40:16;;;;;;;33.63;18.27;;;;;;;4.71;96.75;95977.78;5071206;28;20203;-78
2021/11/15 02:42:43;;;;;;;33.30;18.63;;;;;;;4.73;96.23;95976.75;5072084;28;20176;-78
2021/11/15 02:45:09;;;;;;;28.63;17.77;;;;;;;4.80;96.49;95983.13;5073284;28;20734;-79
2021/11/15 02:47:35;;;;;;;30.53;17.60;;;;;;;4.80;96.09;95972.03;5084116;28;20176;-77
2021/11/15 02:50:03;;;;;;;29.73;17.17;;;;;;;4.70;95.73;95986.44;5080851;28;20209;-78
2021/11/15 02:52:28;;;;;;;30.00;16.93;;;;;;;4.75;96.05;95977.47;5100472;28;20172;-79
2021/11/15 02:54:57;;;;;;;31.00;16.90;;;;;;;4.76;95.67;95973.97;5099917;28;20194;-79
2021/11/15 02:57:24;;;;;;;30.13;17.20;;;;;;;4.75;96.34;95981.78;5100459;28;20594;-80
2021/11/15 02:59:49;;;;;;;31.40;17.40;;;;;;;4.70;95.74;95986.44;5093880;28;20255;-79
2021/11/15 03:02:14;;;;;;;34.67;17.87;;;;;;;4.75;96.49;95979.22;5091378;28;20201;-79
2021/11/15 03:04:44;;;;;;;28.93;16.40;;;;;;;4.79;96.36;95986.63;5089603;28;20204;-79
2021/11/15 03:07:09;;;;;;;32.50;18.00;;;;;;;4.76;96.24;95984.25;5090388;28;20172;-79
2021/11/15 03:09:37;;;;;;;32.10;16.57;;;;;;;4.75;95.90;95985.19;5090417;28;20168;-80
2021/11/15 03:12:03;;;;;;;31.20;17.33;;;;;;;4.66;96.29;95979.81;5090411;28;20585;-79
2021/11/15 03:14:28;;;;;;;32.47;18.07;;;;;;;4.65;96.69;95981.56;5085223;28;20193;-79
2021/11/15 03:16:54;;;;;;;33.70;18.47;;;;;;;4.70;97.02;95982.09;5078281;28;20580;-80
2021/11/15 03:19:19;;;;;;;32.03;18.10;;;;;;;4.71;96.68;95978.59;5071497;28;20209;-79
2021/11/15 03:21:44;;;;;;;37.17;19.83;;;;;;;4.58;96.94;95977.75;5069822;28;20212;-79
2021/11/15 03:24:10;;;;;;;32.47;18.63;;;;;;;4.59;97.04;95976.00;5070374;28;20207;-80
2021/11/15 03:26:35;;;;;;;29.20;16.63;;;;;;;4.62;97.03;95973.25;5071432;28;20215;-79
2021/11/15 03:29:00;;;;;;;35.60;18.87;;;;;;;4.64;96.82;95973.97;5070163;28;20407;-79
2021/11/15 03:31:28;;;;;;;32.37;18.43;;;;;;;4.67;97.34;95976.31;5070008;28;20673;-79
2021/11/15 03:33:57;;;;;;;33.10;18.73;;;;;;;4.65;96.67;95968.69;5068049;28;20687;-78
2021/11/15 03:36:22;;;;;;;35.77;17.87;;;;;;;4.62;96.87;95973.25;5070554;28;20176;-78
2021/11/15 03:38:48;;;;;;;31.00;18.57;;;;;;;4.59;97.03;95969.09;5071645;28;20637;-79
2021/11/15 03:41:15;;;;;;;30.80;17.73;;;;;;;4.62;96.91;95968.91;5070191;28;20204;-79
2021/11/15 03:43:40;;;;;;;31.03;18.40;;;;;;;4.61;97.04;95959.56;5053077;28;20188;-79
2021/11/15 03:46:05;;;;;;;30.57;18.77;;;;;;;4.55;97.09;95965.09;5081941;28;20698;-80
2021/11/15 03:48:31;;;;;;;29.47;17.07;;;;;;;4.58;97.20;95966.63;5070202;28;20185;-79
2021/11/15 03:50:56;;;;;;;32.73;18.33;;;;;;;4.62;96.50;95961.19;5070256;28;20247;-80
2021/11/15 03:53:26;;;;;;;34.50;18.73;;;;;;;4.60;96.22;95963.06;5071158;28;20174;-78
2021/11/15 03:55:52;;;;;;;30.77;17.80;;;;;;;4.59;96.15;95963.97;5070568;28;20180;-78
2021/11/15 03:58:17;;;;;;;28.20;16.87;;;;;;;4.62;95.88;95963.78;5053352;28;20182;-79
2021/11/15 04:00:44;;;;;;;35.90;18.77;;;;;;;4.56;96.09;95964.16;5069979;28;20213;-79
2021/11/15 04:03:20;;;;;;;32.60;18.17;;;;;;;4.53;96.43;95964.38;5071358;28;20200;-79
2021/11/15 04:05:53;;;;;;;35.47;17.97;;;;;;;4.52;96.58;95971.28;5070412;28;20282;-78
2021/11/15 04:08:18;;;;;;;31.63;17.70;;;;;;;4.45;96.40;95964.88;5070683;28;20184;-80
2021/11/15 04:10:45;;;;;;;30.33;17.00;;;;;;;4.45;96.56;95969.19;5073433;28;20213;-78
2021/11/15 04:13:37;;;;;;;30.67;16.67;;;;;;;4.41;96.99;95972.88;5073231;28;20177;-79
2021/11/15 04:16:07;;;;;;;33.10;17.63;;;;;;;4.49;97.20;95976.59;5079606;28;20205;-80
2021/11/15 04:18:39;;;;;;;33.03;17.73;;;;;;;4.54;96.82;95968.59;5073407;28;20187;-79
2021/11/15 04:21:06;;;;;;;30.10;16.10;;;;;;;4.48;96.33;95971.56;5056689;28;20678;-79
2021/11/15 04:23:31;;;;;;;29.67;17.70;;;;;;;4.41;96.69;95972.88;5072642;28;20269;-80
2021/11/15 04:25:56;;;;;;;29.13;17.03;;;;;;;4.47;96.15;95967.34;5073011;28;20303;-79
2021/11/15 04:28:22;;;;;;;29.53;16.90;;;;;;;4.46;96.19;95970.84;5074467;28;20180;-79
2021/11/15 04:30:48;;;;;;;32.13;17.27;;;;;;;4.45;96.40;95969.19;5074158;28;20264;-78
2021/11/15 04:33:13;;;;;;;32.83;16.87;;;;;;;4.42;96.34;95962.50;5071964;28;20192;-80
2021/11/15 04:35:38;;;;;;;25.83;14.57;;;;;;;4.47;95.68;95959.63;5073646;28;20182;-78
2021/11/15 04:38:05;;;;;;;28.47;15.23;;;;;;;4.42;95.46;95965.09;5056288;28;20399;-79
2021/11/15 04:40:30;;;;;;;25.57;15.90;;;;;;;4.38;95.94;95955.09;5072990;28;20204;-80
2021/11/15 04:42:56;;;;;;;27.47;13.73;;;;;;;4.45;95.82;95964.06;5056534;28;20717;-79
2021/11/15 04:45:22;;;;;;;28.47;15.07;;;;;;;4.43;96.12;95951.31;5078252;28;20202;-79
2021/11/15 04:47:47;;;;;;;27.10;15.87;;;;;;;4.40;96.12;95958.38;5066091;28;20553;-79
2021/11/15 04:50:13;;;;;;;25.97;15.33;;;;;;;4.32;96.87;95960.63;5072601;28;20561;-79
2021/11/15 04:52:38;;;;;;;31.97;16.87;;;;;;;4.28;97.30;95960.00;5072817;28;20173;-79
2021/11/15 04:55:06;;;;;;;27.70;16.47;;;;;;;4.36;97.11;95956.94;5072276;28;20172;-79
2021/11/15 04:57:31;;;;;;;30.43;16.03;;;;;;;4.27;97.22;95948.06;5073039;28;20181;-79
2021/11/15 05:00:00;;;;;;;24.53;15.57;;;;;;;4.29;97.62;95958.25;5073727;28;20660;-79
2021/11/15 05:02:25;;;;;;;27.60;15.53;;;;;;;4.27;98.03;95958.34;5066063;28;20684;-78
2021/11/15 05:04:50;;;;;;;30.30;16.60;;;;;;;4.28;98.16;95959.19;5071941;28;20287;-78
2021/11/15 05:07:15;;;;;;;37.33;17.60;;;;;;;4.19;98.33;95958.03;5089307;28;20185;-79
2021/11/15 05:09:41;;;;;;;30.43;16.73;;;;;;;4.25;98.35;95962.78;5072628;28;20199;-79
2021/11/15 05:12:06;;;;;;;27.80;16.17;;;;;;;4.25;98.28;95955.88;5072259;28;20291;-79
2021/11/15 05:14:32;;;;;;;27.27;16.47;;;;;;;4.26;98.39;95960.09;5088512;28;20180;-79
2021/11/15 05:16:57;;;;;;;31.37;17.33;;;;;;;4.21;98.45;95959.56;5062504;28;20197;-79
2021/11/15 05:19:22;;;;;;;31.23;17.10;;;;;;;4.22;98.62;95958.63;5092109;28;20184;-79
2021/11/15 05:21:48;;;;;;;29.73;16.57;;;;;;;4.20;98.09;95965.63;5093330;28;20228;-79
2021/11/15 05:24:13;;;;;;;29.50;16.90;;;;;;;4.20;98.18;95946.81;5092217;28;20210;-78
2021/11/15 05:26:38;;;;;;;30.00;16.20;;;;;;;4.13;97.80;95953.28;5075843;28;20180;-78
2021/11/15 05:29:04;;;;;;;29.47;15.90;;;;;;;4.19;98.31;95956.28;5091606;28;20493;-77
2021/11/15 05:31:33;;;;;;;28.57;15.27;;;;;;;4.21;97.78;95953.59;5074935;28;20230;-78
2021/11/15 05:33:59;;;;;;;30.27;17.13;;;;;;;4.05;98.16;95966.59;5050254;28;20173;-79
2021/11/15 05:36:24;;;;;;;30.73;17.07;;;;;;;4.15;98.90;95966.84;5071867;28;20218;-79
2021/11/15 05:38:49;;;;;;;27.10;17.57;;;;;;;4.00;98.76;95955.81;5069719;28;20189;-79
2021/11/15 05:41:14;;;;;;;28.67;16.70;;;;;;;4.01;98.52;95957.47;5088763;28;20238;-78
2021/11/15 05:43:40;;;;;;;29.07;15.83;;;;;;;4.08;98.63;95965.59;5074128;28;20192;-78
2021/11/15 05:46:05;;;;;;;28.60;16.37;;;;;;;4.08;98.83;95968.19;5066924;28;20191;-79
2021/11/15 05:48:30;;;;;;;29.70;16.47;;;;;;;4.03;98.61;95965.88;5079563;28;20195;-79
2021/11/15 05:50:56;;;;;;;30.53;16.67;;;;;;;4.11;98.56;95966.22;5071153;28;20283;-78
2021/11/15 05:53:21;;;;;;;26.23;15.93;;;;;;;4.06;98.77;95970.00;5070605;28;20184;-79
2021/11/15 05:55:47;;;;;;;31.13;16.50;;;;;;;4.11;98.26;95970.53;5070741;28;20223;-79
2021/11/15 05:58:12;;;;;;;29.20;16.57;;;;;;;4.08;98.50;95976.72;5087648;28;20188;-79
2021/11/15 06:00:38;;;;;;;25.93;15.83;;;;;;;4.07;98.21;95976.81;5080720;28;20193;-79
2021/11/15 06:03:03;;;;;;;26.60;14.90;;;;;;;4.03;97.87;95975.34;5071637;28;20192;-79
2021/11/15 06:05:28;;;;;;;27.80;16.67;;;;;;;4.09;98.26;95975.78;5075593;28;20564;-79
2021/11/15 06:07:54;;;;;;;30.97;15.10;;;;;;;4.11;97.77;95980.81;5068529;28;20180;-80
2021/11/15 06:10:21;;;;;;;27.47;15.30;;;;;;;4.14;97.92;95975.47;5070134;28;20226;-78
2021/11/15 06:12:47;;;;;;;25.73;15.77;;;;;;;4.16;97.85;95979.63;5089522;28;20663;-78
2021/11/15 06:15:14;;;;;;;27.23;15.50;;;;;;;4.09;97.68;95985.25;5077755;28;20268;-79
2021/11/15 06:17:39;;;;;;;26.93;15.23;;;;;;;4.10;97.67;95990.28;5057110;28;20584;-79
2021/11/15 06:20:06;;;;;;;26.47;15.10;;;;;;;4.16;97.57;95991.66;5079303;28;20191;-78
2021/11/15 06:22:31;;;;;;;27.60;16.07;;;;;;;4.08;97.74;95987.00;5065267;28;20246;-77
2021/11/15 06:24:56;;;;;;;26.33;15.47;;;;;;;4.04;97.66;95992.41;5075550;28;20203;-79
2021/11/15 06:27:22;;;;;;;26.60;15.47;;;;;;;4.06;97.93;95996.53;5085407;28;20587;-78
2021/11/15 06:29:47;;;;;;;27.63;15.33;;;;;;;4.03;97.07;95989.00;5072550;28;20663;-78
2021/11/15 06:32:13;;;;;;;28.83;14.70;;;;;;;4.07;97.40;95987.91;5084059;28;20639;-78
2021/11/15 06:34:39;;;;;;;28.03;14.27;;;;;;;4.14;97.22;95996.88;5078548;28;20177;-78
2021/11/15 06:37:04;;;;;;;25.80;14.73;;;;;;;4.12;96.97;95996.13;5081829;28;20180;-78
2021/11/15 06:39:30;;;;;;;24.73;14.43;;;;;;;4.15;97.42;95995.97;5070127;28;20201;-78
2021/11/15 06:41:57;;;;;;;24.53;14.73;;;;;;;4.13;97.14;96000.34;5088709;28;20288;-78
2021/11/15 06:44:23;;;;;;;28.23;14.23;;;;;;;4.05;97.05;96006.91;5085193;28;20200;-79
2021/11/15 06:46:49;;;;;;;24.37;14.70;;;;;;;4.13;97.36;96008.06;5063742;28;20180;-79
2021/11/15 06:49:15;;;;;;;22.33;13.80;;;;;;;4.09;97.16;96006.63;5087986;28;20539;-79
2021/11/15 06:51:41;;;;;;;24.70;13.83;;;;;;;4.09;97.32;96001.47;5073431;28;20199;-78
2021/11/15 06:54:07;;;;;;;26.17;15.00;;;;;;;4.09;97.58;96011.75;5087402;28;20188;-78
2021/11/15 06:56:32;;;;;;;25.13;14.80;;;;;;;3.97;97.26;96007.38;5088684;28;20194;-79
2021/11/15 06:58:57;;;;;;;25.53;14.27;;;;;;;4.06;97.55;96008.53;5070121;28;20192;-79
2021/11/15 07:01:23;;;;;;;24.40;14.13;;;;;;;3.96;97.08;96010.88;5070711;28;20208;-79
2021/11/15 07:03:48;;;;;;;27.40;14.60;;;;;;;3.94;97.47;96010.97;5087021;28;20201;-79
2021/11/15 07:06:14;;;;;;;22.10;13.67;;;;;;;4.01;97.26;96016.56;5056759;28;20199;-79
2021/11/15 07:08:40;;;;;;;24.83;14.07;;;;;;;4.05;97.34;96012.03;5071376;28;20176;-79
2021/11/15 07:11:05;;;;;;;26.70;14.07;;;;;;;4.05;97.27;96007.72;5083638;28;20213;-79
2021/11/15 07:13:30;;;;;;;22.57;14.03;;;;;;;4.05;97.13;96012.03;5073920;28;20203;-79
2021/11/15 07:15:55;;;;;;;26.00;14.50;;;;;;;3.96;97.05;96018.59;5077867;28;20225;-78
2021/11/15 07:18:21;;;;;;;26.27;13.87;;;;;;;4.03;97.28;96012.16;5076244;28;20204;-78
2021/11/15 07:20:47;;;;;;;22.63;13.50;;;;;;;4.00;97.09;96017.50;5084729;28;20205;-80
2021/11/15 07:23:13;;;;;;;22.70;12.93;;;;;;;3.90;97.22;96014.66;5077667;28;20181;-79
2021/11/15 07:25:39;;;;;;;23.87;13.63;;;;;;;3.99;97.51;96005.56;5053563;28;20579;-78
2021/11/15 07:28:04;;;;;;;23.90;14.07;;;;;;;4.09;97.03;96014.34;5053548;28;20182;-78
2021/11/15 07:30:30;;;;;;;21.90;13.97;;;;;;;3.94;97.16;96023.00;5070336;28;20200;-78
2021/11/15 07:32:55;;;;;;;20.57;13.07;;;;;;;4.06;97.31;96018.81;5070401;28;20181;-79
2021/11/15 07:35:21;;;;;;;21.07;12.93;;;;;;;4.07;97.45;96016.19;5053708;28;20174;-78
2021/11/15 07:37:47;;;;;;;27.23;13.17;;;;;;;3.99;97.37;96023.56;5070756;28;20592;-79
2021/11/15 07:40:15;;;;;;;25.23;15.10;;;;;;;3.89;97.63;96022.47;5070756;28;20200;-78
2021/11/15 07:42:40;;;;;;;25.00;14.13;;;;;;;4.01;97.88;96020.88;5058013;28;20562;-78
2021/11/15 07:45:07;;;;;;;25.90;15.83;;;;;;;4.08;97.37;96020.41;5060681;28;20215;-78
2021/11/15 07:47:33;;;;;;;26.80;15.07;;;;;;;4.01;97.44;96019.13;5083121;28;20309;-79
2021/11/15 07:49:59;;;;;;;29.33;14.73;;;;;;;4.05;96.97;96012.88;5075789;28;20177;-79
2021/11/15 07:52:24;;;;;;;26.63;14.20;;;;;;;4.10;97.11;96023.69;5075107;28;20187;-78
2021/11/15 07:54:49;;;;;;;23.33;13.93;;;;;;;4.11;96.55;96027.91;5057981;28;20177;-79
2021/11/15 07:57:16;;;;;;;22.13;14.17;;;;;;;4.04;96.83;96023.25;5087992;28;20633;-78
2021/11/15 07:59:42;;;;;;;24.20;14.17;;;;;;;4.10;97.16;96021.13;5084985;28;20225;-78
2021/11/15 08:02:08;;;;;;;23.47;13.53;;;;;;;4.10;97.00;96023.69;5060953;28;20201;-79
2021/11/15 08:04:33;;;;;;;21.80;13.13;;;;;;;4.22;96.73;96020.34;5075667;28;20208;-78
2021/11/15 08:06:59;;;;;;;23.27;12.90;;;;;;;4.10;96.28;96026.25;5075148;28;20568;-78
2021/11/15 08:09:25;;;;;;;22.87;12.90;;;;;;;4.18;96.97;96023.22;5075824;28;20519;-79
2021/11/15 08:11:52;;;;;;;20.60;12.07;;;;;;;4.29;96.37;96032.81;5078222;28;20280;-80
2021/11/15 08:14:17;;;;;;;21.40;13.40;;;;;;;4.18;95.96;96029.19;5077897;28;20176;-79
2021/11/15 08:16:43;;;;;;;26.27;13.07;;;;;;;4.22;95.88;96038.34;5068603;28;20184;-79
2021/11/15 08:19:09;;;;;;;33.40;20.30;;;;;;;4.21;96.24;96028.97;5078713;28;20180;-80
2021/11/15 08:21:34;;;;;;;24.07;16.27;;;;;;;4.08;95.89;96029.84;5074867;28;20203;-79
2021/11/15 08:24:36;;;;;;;21.50;13.10;;;;;;;4.09;96.75;96028.94;5074077;28;20181;-79
2021/11/15 08:27:03;;;;;;;23.60;13.03;;;;;;;4.14;96.53;96032.84;5075178;28;20681;-80
2021/11/15 08:29:32;;;;;;;26.27;12.93;;;;;;;4.09;96.49;96036.66;5089668;28;20259;-81
2021/11/15 08:32:03;;;;;;;22.70;13.57;;;;;;;4.05;96.42;96036.00;5065828;28;20204;-80
2021/11/15 08:34:29;;;;;;;23.47;13.20;;;;;;;4.07;97.32;96036.75;5092966;28;20179;-82
2021/11/15 08:36:54;;;;;;;23.87;12.80;;;;;;;4.12;96.93;96042.41;5083592;28;20866;-79
2021/11/15 08:39:22;;;;;;;26.13;13.67;;;;;;;4.08;96.87;96032.44;5059241;28;20207;-80
2021/11/15 08:41:50;;;;;;;22.90;12.70;;;;;;;4.14;97.43;96038.00;5074112;28;20219;-80
2021/11/15 08:44:17;;;;;;;22.97;12.67;;;;;;;4.20;96.82;96037.59;5080943;28;20276;-78
2021/11/15 08:46:45;;;;;;;25.37;13.47;;;;;;;4.15;96.88;96037.09;5068777;28;20260;-79
2021/11/15 08:49:12;;;;;;;20.30;12.63;;;;;;;4.20;96.67;96027.31;5091689;28;20547;-80
2021/11/15 08:51:39;;;;;;;20.40;12.67;;;;;;;4.20;96.89;96029.91;5074545;28;20208;-80
2021/11/15 08:54:05;;;;;;;20.57;12.40;;;;;;;4.07;97.75;96038.50;5072795;28;20219;-79
2021/11/15 08:56:33;;;;;;;22.53;13.07;;;;;;;4.08;97.59;96029.84;5057738;28;20219;-79
2021/11/15 08:58:58;;;;;;;25.97;15.10;;;;;;;4.12;97.31;96031.31;5059295;28;20287;-80
2021/11/15 09:01:25;;;;;;;22.07;12.60;;;;;;;4.20;97.24;96029.91;5087062;28;20193;-79
2021/11/15 09:03:51;;;;;;;25.30;13.83;;;;;;;4.10;97.53;96031.41;5074161;28;20196;-80
2021/11/15 09:06:16;;;;;;;21.30;12.50;;;;;;;4.21;97.78;96031.53;5080702;28;20253;-79
2021/11/15 09:08:43;;;;;;;26.70;14.77;;;;;;;4.16;96.99;96028.47;5069229;28;20188;-79
2021/11/15 09:11:09;;;;;;;19.80;13.07;;;;;;;4.25;97.37;96029.63;5090479;28;20211;-79
2021/11/15 09:13:36;;;;;;;21.37;13.17;;;;;;;4.17;97.08;96027.53;5079127;28;20185;-79
2021/11/15 09:16:02;;;;;;;22.33;12.63;;;;;;;4.10;97.15;96023.69;5077487;28;20180;-79
2021/11/15 09:18:27;;;;;;;24.87;14.27;;;;;;;4.16;97.80;96025.06;5080747;28;20221;-79
2021/11/15 09:20:54;;;;;;;20.47;12.37;;;;;;;4.21;97.49;96026.41;5074597;28;20204;-80
2021/11/15 09:23:19;;;;;;;27.20;14.40;;;;;;;4.19;96.98;96033.41;5061319;28;20670;-79
2021/11/15 09:25:44;;;;;;;23.23;13.37;;;;;;;4.25;97.64;96035.59;5092219;28;20206;-80
2021/11/15 09:28:10;;;;;;;22.97;13.67;;;;;;;4.20;97.65;96035.03;5069122;28;20247;-79
2021/11/15 09:30:38;;;;;;;19.83;12.60;;;;;;;4.31;97.36;96036.94;5068261;28;20697;-80
2021/11/15 09:33:04;;;;;;;23.27;12.97;;;;;;;4.35;97.17;96035.00;5094041;28;20275;-79
2021/11/15 09:35:29;;;;;;;20.50;13.03;;;;;;;4.23;98.04;96034.84;5076981;28;20175;-79
2021/11/15 09:37:54;;;;;;;23.17;13.97;;;;;;;4.28;97.79;96033.75;5089485;28;20185;-79
2021/11/15 09:40:20;;;;;;;23.57;13.73;;;;;;;4.19;97.65;96033.41;5079468;28;20574;-80
2021/11/15 09:42:46;;;;;;;24.87;13.20;;;;;;;4.30;97.76;96034.47;5082895;28;20703;-80
2021/11/15 09:45:12;;;;;;;24.73;14.07;;;;;;;4.37;96.97;96035.72;5060886;28;20211;-80
2021/11/15 09:47:39;;;;;;;25.33;14.93;;;;;;;4.33;96.92;96034.25;5083208;28;20710;-78
2021/11/15 09:50:07;;;;;;;27.17;14.57;;;;;;;4.39;97.42;96041.59;5058699;28;20177;-79
2021/11/15 09:52:32;;;;;;;24.23;14.57;;;;;;;4.38;97.50;96030.47;5081221;28;20188;-80
2021/11/15 09:55:00;;;;;;;20.47;13.37;;;;;;;4.46;97.38;96028.25;5078462;28;20198;-80
2021/11/15 09:57:25;;;;;;;23.90;13.73;;;;;;;4.39;96.96;96031.31;5085293;28;20654;-79
2021/11/15 09:59:51;;;;;;;20.73;12.97;;;;;;;4.46;96.76;96035.13;5085546;28;20187;-79
2021/11/15 10:02:16;;;;;;;25.13;13.30;;;;;;;4.54;96.69;96027.75;5083150;28;20209;-78
2021/11/15 10:04:42;;;;;;;23.03;12.00;;;;;;;4.50;96.45;96023.72;5077428;28;20204;-79
2021/11/15 10:07:07;;;;;;;29.33;14.70;;;;;;;4.40;96.84;96020.09;5074390;28;20196;-77
2021/11/15 10:09:37;;;;;;;28.57;16.87;;;;;;;4.39;97.13;96021.84;5084503;28;20184;-79
2021/11/15 10:12:12;;;;;;;24.97;14.80;;;;;;;4.38;96.66;96021.94;5066387;28;20197;-78
2021/11/15 10:15:00;;;;;;;22.90;13.10;;;;;;;4.36;97.39;96023.78;5086255;28;20302;-79
2021/11/15 10:17:38;;;;;;;20.07;12.47;;;;;;;4.45;97.56;96023.19;5058370;28;20185;-78
2021/11/15 10:20:04;;;;;;;22.90;13.07;;;;;;;4.49;96.84;96016.91;5082975;28;20185;-78
2021/11/15 10:22:29;;;;;;;22.10;12.87;;;;;;;4.41;96.87;96016.59;5080558;28;20188;-78
2021/11/15 10:24:55;;;;;;;21.67;13.10;;;;;;;4.45;97.38;96018.06;5079340;28;20280;-78
2021/11/15 10:27:26;;;;;;;22.13;12.67;;;;;;;4.58;96.80;96018.91;5079264;28;20202;-78
2021/11/15 10:29:55;;;;;;;23.77;13.03;;;;;;;4.57;96.87;96011.28;5079180;28;20178;-76
2021/11/15 10:32:29;;;;;;;23.20;12.73;;;;;;;4.66;96.63;96016.66;5074355;28;20278;-77
2021/11/15 10:34:58;;;;;;;23.60;13.23;;;;;;;4.60;96.83;96013.69;5080264;28;20183;-77
2021/11/15 10:37:28;;;;;;;22.00;13.53;;;;;;;4.65;96.93;96016.75;5056763;28;20186;-76
2021/11/15 10:40:02;;;;;;;22.80;14.27;;;;;;;4.59;96.53;96019.72;5087691;28;20193;-77
2021/11/15 10:42:34;;;;;;;21.47;13.00;;;;;;;4.76;95.82;96016.88;5069546;28;20184;-77
2021/11/15 10:45:20;;;;;;;24.10;14.80;;;;;;;4.59;95.44;96010.25;5076876;28;20295;-77
2021/11/15 10:47:57;;;;;;;25.17;13.70;;;;;;;4.74;95.13;96004.13;5075469;28;20184;-77
2021/11/15 10:50:31;;;;;;;23.43;13.43;;;;;;;4.66;95.61;96003.78;5079105;28;20213;-77
2021/11/15 10:53:31;;;;;;;22.23;12.97;;;;;;;4.68;95.03;96007.13;5074407;28;20249;-77
2021/11/15 10:56:12;;;;;;;20.63;13.27;;;;;;;4.71;95.80;96006.06;5084048;28;20204;-77
2021/11/15 10:58:42;;;;;;;24.93;13.90;;;;;;;4.74;95.02;95996.41;5076686;28;20288;-78
2021/11/15 11:01:09;;;;;;;20.43;13.13;;;;;;;4.77;94.63;95991.06;5078401;28;20287;-80
2021/11/15 11:03:34;;;;;;;21.77;12.73;;;;;;;4.71;94.23;95990.63;5057618;28;20185;-78
2021/11/15 11:06:12;;;;;;;23.93;13.70;;;;;;;4.69;94.37;95985.59;5078168;28;20698;-78
2021/11/15 11:08:40;;;;;;;31.00;15.67;;;;;;;4.66;94.84;95990.09;5075906;28;20177;-77
2021/11/15 11:11:09;;;;;;;22.50;14.73;;;;;;;4.70;94.56;95996.72;5058140;28;20287;-77
2021/11/15 11:13:56;;;;;;;26.27;16.70;;;;;;;4.75;93.99;96000.63;5071778;28;20192;-77
2021/11/15 11:16:35;;;;;;;33.63;21.80;;;;;;;4.61;93.88;96000.72;5076803;28;20184;-78
2021/11/15 11:19:16;;;;;;;28.87;18.03;;;;;;;4.65;94.16;95999.56;5085390;28;20184;-79
2021/11/15 11:24:16;;;;;;;25.23;15.07;;;;;;;4.54;93.41;95996.88;5074816;28;20196;-79
2021/11/15 11:26:47;;;;;;;24.30;15.17;;;;;;;4.61;93.77;95998.16;5069641;28;20183;-80